sensor_id;sensor_type;location;lat;lon;timestamp;pressure;altitude;pressure_sealevel;temperature;humidity
80397;BME280;69721;55.894;-3.052;2023-05-07T00:01:20;100915.33;;;10.55;62.40
80397;BME280;69721;55.894;-3.052;2023-05-07T00:03:46;100918.89;;;11.36;60.61
80397;BME280;69721;55.894;-3.052;2023-05-07T00:06:11;100922.66;;;11.78;59.65
80397;BME280;69721;55.894;-3.052;2023-05-07T00:08:36;100925.41;;;10.66;61.86
80397;BME280;69721;55.894;-3.052;2023-05-07T00:11:02;100922.84;;;11.06;61.32
80397;BME280;69721;55.894;-3.052;2023-05-07T00:13:27;100922.12;;;10.67;61.99
80397;BME280;69721;55.894;-3.052;2023-05-07T00:15:53;100926.85;;;11.04;61.37
80397;BME280;69721;55.894;-3.052;2023-05-07T00:18:19;100927.39;;;10.08;63.30
80397;BME280;69721;55.894;-3.052;2023-05-07T00:20:44;100921.21;;;10.53;62.28
80397;BME280;69721;55.894;-3.052;2023-05-07T00:23:10;100918.95;;;10.90;60.85
80397;BME280;69721;55.894;-3.052;2023-05-07T00:25:35;100920.13;;;11.09;61.05
80397;BME280;69721;55.894;-3.052;2023-05-07T00:28:00;100923.67;;;10.94;60.76
80397;BME280;69721;55.894;-3.052;2023-05-07T00:30:25;100926.56;;;11.65;59.84
80397;BME280;69721;55.894;-3.052;2023-05-07T00:32:51;100928.77;;;11.65;59.64
80397;BME280;69721;55.894;-3.052;2023-05-07T00:35:16;100930.50;;;10.71;61.02
80397;BME280;69721;55.894;-3.052;2023-05-07T00:37:42;100930.62;;;11.47;59.20
80397;BME280;69721;55.894;-3.052;2023-05-07T00:40:09;100931.16;;;11.62;59.23
80397;BME280;69721;55.894;-3.052;2023-05-07T00:42:33;100934.08;;;12.03;58.63
80397;BME280;69721;55.894;-3.052;2023-05-07T00:44:58;100932.41;;;11.85;58.14
80397;BME280;69721;55.894;-3.052;2023-05-07T00:47:24;100933.92;;;12.19;58.02
80397;BME280;69721;55.894;-3.052;2023-05-07T00:49:49;100933.55;;;11.94;58.23
80397;BME280;69721;55.894;-3.052;2023-05-07T00:52:16;100929.47;;;11.67;58.40
80397;BME280;69721;55.894;-3.052;2023-05-07T00:54:41;100931.15;;;11.92;59.15
80397;BME280;69721;55.894;-3.052;2023-05-07T00:57:06;100933.18;;;11.39;59.84
80397;BME280;69721;55.894;-3.052;2023-05-07T00:59:32;100929.77;;;10.90;61.08
80397;BME280;69721;55.894;-3.052;2023-05-07T01:01:56;100932.58;;;10.74;62.07
80397;BME280;69721;55.894;-3.052;2023-05-07T01:04:21;100932.79;;;10.78;62.04
80397;BME280;69721;55.894;-3.052;2023-05-07T01:06:47;100932.59;;;11.15;60.74
80397;BME280;69721;55.894;-3.052;2023-05-07T01:09:12;100936.64;;;11.50;60.40
80397;BME280;69721;55.894;-3.052;2023-05-07T01:11:38;100940.54;;;11.79;59.30
80397;BME280;69721;55.894;-3.052;2023-05-07T01:14:04;100938.42;;;12.07;59.03
80397;BME280;69721;55.894;-3.052;2023-05-07T01:16:28;100937.79;;;11.95;59.17
80397;BME280;69721;55.894;-3.052;2023-05-07T01:18:54;100940.87;;;12.22;58.77
80397;BME280;69721;55.894;-3.052;2023-05-07T01:21:25;100940.33;;;11.38;60.44
80397;BME280;69721;55.894;-3.052;2023-05-07T01:23:46;100942.82;;;11.02;60.34
80397;BME280;69721;55.894;-3.052;2023-05-07T01:26:11;100938.65;;;11.51;60.56
80397;BME280;69721;55.894;-3.052;2023-05-07T01:28:36;100934.93;;;11.29;60.35
80397;BME280;69721;55.894;-3.052;2023-05-07T01:31:04;100931.94;;;11.55;60.23
80397;BME280;69721;55.894;-3.052;2023-05-07T01:33:29;100934.78;;;10.26;62.35
80397;BME280;69721;55.894;-3.052;2023-05-07T01:35:53;100935.75;;;11.17;60.78
80397;BME280;69721;55.894;-3.052;2023-05-07T01:38:18;100938.36;;;11.39;60.22
80397;BME280;69721;55.894;-3.052;2023-05-07T01:40:43;100939.81;;;11.60;59.84
80397;BME280;69721;55.894;-3.052;2023-05-07T01:43:09;100943.42;;;11.68;59.25
80397;BME280;69721;55.894;-3.052;2023-05-07T01:45:34;100941.78;;;11.25;60.50
80397;BME280;69721;55.894;-3.052;2023-05-07T01:47:59;100940.99;;;11.70;60.12
80397;BME280;69721;55.894;-3.052;2023-05-07T01:50:25;100942.58;;;11.79;59.53
80397;BME280;69721;55.894;-3.052;2023-05-07T01:52:51;100939.33;;;11.50;60.01
80397;BME280;69721;55.894;-3.052;2023-05-07T01:55:15;100937.37;;;10.96;61.43
80397;BME280;69721;55.894;-3.052;2023-05-07T01:57:40;100936.57;;;10.64;62.00
80397;BME280;69721;55.894;-3.052;2023-05-07T02:00:07;100938.10;;;11.19;61.29
80397;BME280;69721;55.894;-3.052;2023-05-07T02:02:31;100938.88;;;11.30;61.09
80397;BME280;69721;55.894;-3.052;2023-05-07T02:04:57;100937.83;;;11.56;60.59
80397;BME280;69721;55.894;-3.052;2023-05-07T02:07:23;100936.10;;;10.84;62.01
80397;BME280;69721;55.894;-3.052;2023-05-07T02:09:48;100940.24;;;10.93;62.25
80397;BME280;69721;55.894;-3.052;2023-05-07T02:12:13;100946.65;;;11.04;61.62
80397;BME280;69721;55.894;-3.052;2023-05-07T02:14:38;100949.82;;;11.37;60.66
80397;BME280;69721;55.894;-3.052;2023-05-07T02:17:04;100944.14;;;11.54;60.29
80397;BME280;69721;55.894;-3.052;2023-05-07T02:19:30;100943.14;;;11.57;60.14
80397;BME280;69721;55.894;-3.052;2023-05-07T02:21:55;100943.90;;;11.44;60.12
80397;BME280;69721;55.894;-3.052;2023-05-07T02:24:21;100941.82;;;11.53;60.64
80397;BME280;69721;55.894;-3.052;2023-05-07T02:26:46;100945.16;;;11.64;60.13
80397;BME280;69721;55.894;-3.052;2023-05-07T02:29:12;100948.71;;;11.90;59.51
80397;BME280;69721;55.894;-3.052;2023-05-07T02:31:37;100949.42;;;12.43;58.74
80397;BME280;69721;55.894;-3.052;2023-05-07T02:34:03;100947.21;;;12.09;59.37
80397;BME280;69721;55.894;-3.052;2023-05-07T02:36:28;100952.17;;;10.71;61.33
80397;BME280;69721;55.894;-3.052;2023-05-07T02:38:54;100954.75;;;10.84;62.28
80397;BME280;69721;55.894;-3.052;2023-05-07T02:41:19;100956.96;;;10.92;61.99
80397;BME280;69721;55.894;-3.052;2023-05-07T02:43:45;100965.30;;;9.83;63.76
80397;BME280;69721;55.894;-3.052;2023-05-07T02:46:10;100962.14;;;10.49;62.40
80397;BME280;69721;55.894;-3.052;2023-05-07T02:48:36;100969.11;;;9.86;63.93
80397;BME280;69721;55.894;-3.052;2023-05-07T02:51:03;100972.89;;;9.19;65.88
80397;BME280;69721;55.894;-3.052;2023-05-07T02:53:28;100978.37;;;9.76;65.43
80397;BME280;69721;55.894;-3.052;2023-05-07T02:55:53;100977.07;;;10.54;63.47
80397;BME280;69721;55.894;-3.052;2023-05-07T02:58:19;100986.95;;;9.41;65.93
80397;BME280;69721;55.894;-3.052;2023-05-07T03:00:44;100987.37;;;9.97;64.77
80397;BME280;69721;55.894;-3.052;2023-05-07T03:03:12;100985.38;;;9.84;64.09
80397;BME280;69721;55.894;-3.052;2023-05-07T03:05:37;100990.36;;;9.61;64.00
80397;BME280;69721;55.894;-3.052;2023-05-07T03:08:03;100989.28;;;10.17;63.47
80397;BME280;69721;55.894;-3.052;2023-05-07T03:10:29;100988.94;;;10.59;62.57
80397;BME280;69721;55.894;-3.052;2023-05-07T03:12:54;100996.95;;;8.77;67.54
80397;BME280;69721;55.894;-3.052;2023-05-07T03:15:19;100991.89;;;8.34;67.86
80397;BME280;69721;55.894;-3.052;2023-05-07T03:17:44;100990.86;;;9.20;67.14
80397;BME280;69721;55.894;-3.052;2023-05-07T03:20:10;100993.63;;;8.86;66.45
80397;BME280;69721;55.894;-3.052;2023-05-07T03:22:35;100998.01;;;8.89;67.45
80397;BME280;69721;55.894;-3.052;2023-05-07T03:25:01;100997.61;;;8.10;67.54
80397;BME280;69721;55.894;-3.052;2023-05-07T03:27:26;101006.12;;;8.92;67.30
80397;BME280;69721;55.894;-3.052;2023-05-07T03:29:51;101008.77;;;9.00;67.32
80397;BME280;69721;55.894;-3.052;2023-05-07T03:32:17;101009.62;;;9.41;65.63
80397;BME280;69721;55.894;-3.052;2023-05-07T03:34:42;101010.61;;;9.00;66.10
80397;BME280;69721;55.894;-3.052;2023-05-07T03:37:08;101011.13;;;9.80;64.47
80397;BME280;69721;55.894;-3.052;2023-05-07T03:39:33;101012.24;;;8.03;69.33
80397;BME280;69721;55.894;-3.052;2023-05-07T03:41:58;101008.46;;;9.54;65.24
80397;BME280;69721;55.894;-3.052;2023-05-07T03:44:24;101006.97;;;10.03;63.65
80397;BME280;69721;55.894;-3.052;2023-05-07T03:46:49;100997.55;;;10.54;60.96
80397;BME280;69721;55.894;-3.052;2023-05-07T03:49:15;100998.86;;;10.84;60.63
80397;BME280;69721;55.894;-3.052;2023-05-07T03:51:41;101001.34;;;9.94;61.93
80397;BME280;69721;55.894;-3.052;2023-05-07T03:54:06;100996.64;;;10.78;60.34
80397;BME280;69721;55.894;-3.052;2023-05-07T03:56:32;100995.34;;;10.81;60.26
80397;BME280;69721;55.894;-3.052;2023-05-07T03:58:59;100992.38;;;10.63;60.67
80397;BME280;69721;55.894;-3.052;2023-05-07T04:01:23;100990.44;;;10.89;59.83
80397;BME280;69721;55.894;-3.052;2023-05-07T04:03:50;100988.87;;;10.78;60.07
80397;BME280;69721;55.894;-3.052;2023-05-07T04:06:16;100989.03;;;9.46;62.72
80397;BME280;69721;55.894;-3.052;2023-05-07T04:08:40;100984.33;;;10.01;62.84
80397;BME280;69721;55.894;-3.052;2023-05-07T04:11:05;100982.71;;;10.00;62.32
80397;BME280;69721;55.894;-3.052;2023-05-07T04:13:30;100984.40;;;10.06;61.72
80397;BME280;69721;55.894;-3.052;2023-05-07T04:15:56;100986.49;;;10.47;62.23
80397;BME280;69721;55.894;-3.052;2023-05-07T04:18:22;100989.12;;;9.36;64.39
80397;BME280;69721;55.894;-3.052;2023-05-07T04:20:47;100987.80;;;8.72;66.16
80397;BME280;69721;55.894;-3.052;2023-05-07T04:23:12;100985.78;;;9.66;64.51
80397;BME280;69721;55.894;-3.052;2023-05-07T04:25:37;100983.33;;;10.52;62.32
80397;BME280;69721;55.894;-3.052;2023-05-07T04:28:03;100983.24;;;10.27;61.58
80397;BME280;69721;55.894;-3.052;2023-05-07T04:30:29;100982.39;;;10.35;61.28
80397;BME280;69721;55.894;-3.052;2023-05-07T04:32:55;100981.90;;;10.89;61.10
80397;BME280;69721;55.894;-3.052;2023-05-07T04:35:20;100984.53;;;10.48;61.16
80397;BME280;69721;55.894;-3.052;2023-05-07T04:37:46;100980.96;;;10.78;61.28
80397;BME280;69721;55.894;-3.052;2023-05-07T04:40:11;100981.46;;;10.54;61.08
80397;BME280;69721;55.894;-3.052;2023-05-07T04:42:37;100981.85;;;10.91;60.36
80397;BME280;69721;55.894;-3.052;2023-05-07T04:45:03;100988.55;;;10.93;60.02
80397;BME280;69721;55.894;-3.052;2023-05-07T04:47:28;100989.82;;;10.99;59.87
80397;BME280;69721;55.894;-3.052;2023-05-07T04:49:53;100989.84;;;10.64;60.83
80397;BME280;69721;55.894;-3.052;2023-05-07T04:52:19;100985.34;;;11.00;60.10
80397;BME280;69721;55.894;-3.052;2023-05-07T04:54:44;100992.91;;;9.52;63.08
80397;BME280;69721;55.894;-3.052;2023-05-07T04:57:09;100999.93;;;9.57;63.66
80397;BME280;69721;55.894;-3.052;2023-05-07T04:59:34;101000.28;;;9.88;63.02
80397;BME280;69721;55.894;-3.052;2023-05-07T05:02:00;100998.91;;;10.26;61.86
80397;BME280;69721;55.894;-3.052;2023-05-07T05:04:26;101002.53;;;10.40;63.04
80397;BME280;69721;55.894;-3.052;2023-05-07T05:06:51;101008.66;;;10.13;63.51
80397;BME280;69721;55.894;-3.052;2023-05-07T05:09:16;101009.32;;;9.93;62.86
80397;BME280;69721;55.894;-3.052;2023-05-07T05:11:42;101008.13;;;8.92;64.66
80397;BME280;69721;55.894;-3.052;2023-05-07T05:14:07;101010.29;;;9.77;63.60
80397;BME280;69721;55.894;-3.052;2023-05-07T05:16:33;101005.41;;;10.70;62.24
80397;BME280;69721;55.894;-3.052;2023-05-07T05:18:59;101007.15;;;10.78;61.38
80397;BME280;69721;55.894;-3.052;2023-05-07T05:21:24;101016.73;;;9.96;62.16
80397;BME280;69721;55.894;-3.052;2023-05-07T05:23:49;101020.74;;;10.04;61.88
80397;BME280;69721;55.894;-3.052;2023-05-07T05:26:14;101025.75;;;9.70;64.01
80397;BME280;69721;55.894;-3.052;2023-05-07T05:28:39;101030.71;;;10.04;63.50
80397;BME280;69721;55.894;-3.052;2023-05-07T05:31:05;101028.57;;;9.77;63.81
80397;BME280;69721;55.894;-3.052;2023-05-07T05:33:30;101032.06;;;9.86;63.70
80397;BME280;69721;55.894;-3.052;2023-05-07T05:35:56;101033.17;;;10.39;62.97
80397;BME280;69721;55.894;-3.052;2023-05-07T05:38:21;101026.72;;;10.40;61.55
80397;BME280;69721;55.894;-3.052;2023-05-07T05:40:46;101040.95;;;10.27;63.11
80397;BME280;69721;55.894;-3.052;2023-05-07T05:43:13;101039.98;;;10.82;60.60
80397;BME280;69721;55.894;-3.052;2023-05-07T05:45:38;101041.71;;;10.99;61.29
80397;BME280;69721;55.894;-3.052;2023-05-07T05:48:03;101046.45;;;9.78;63.81
80397;BME280;69721;55.894;-3.052;2023-05-07T05:50:29;101052.39;;;9.99;62.38
80397;BME280;69721;55.894;-3.052;2023-05-07T05:52:55;101050.94;;;10.03;63.73
80397;BME280;69721;55.894;-3.052;2023-05-07T05:55:20;101047.12;;;9.61;63.56
80397;BME280;69721;55.894;-3.052;2023-05-07T05:57:45;101041.53;;;9.87;63.32
80397;BME280;69721;55.894;-3.052;2023-05-07T06:00:12;101038.95;;;10.38;61.48
80397;BME280;69721;55.894;-3.052;2023-05-07T06:02:36;101044.89;;;10.07;61.91
80397;BME280;69721;55.894;-3.052;2023-05-07T06:05:01;101042.23;;;10.33;61.38
80397;BME280;69721;55.894;-3.052;2023-05-07T06:07:27;101041.80;;;10.52;61.34
80397;BME280;69721;55.894;-3.052;2023-05-07T06:09:52;101041.95;;;11.27;59.81
80397;BME280;69721;55.894;-3.052;2023-05-07T06:12:17;101039.88;;;11.53;59.49
80397;BME280;69721;55.894;-3.052;2023-05-07T06:14:43;101041.74;;;11.21;59.54
80397;BME280;69721;55.894;-3.052;2023-05-07T06:17:09;101045.27;;;10.11;62.20
80397;BME280;69721;55.894;-3.052;2023-05-07T06:19:34;101043.82;;;10.01;62.72
80397;BME280;69721;55.894;-3.052;2023-05-07T06:22:00;101035.06;;;10.63;61.58
80397;BME280;69721;55.894;-3.052;2023-05-07T06:24:24;101036.42;;;10.67;61.52
80397;BME280;69721;55.894;-3.052;2023-05-07T06:26:50;101041.31;;;10.68;60.79
80397;BME280;69721;55.894;-3.052;2023-05-07T06:29:15;101043.33;;;10.53;61.77
80397;BME280;69721;55.894;-3.052;2023-05-07T06:31:41;101043.12;;;11.08;60.52
80397;BME280;69721;55.894;-3.052;2023-05-07T06:34:07;101053.70;;;9.91;64.05
80397;BME280;69721;55.894;-3.052;2023-05-07T06:36:32;101055.16;;;9.92;63.41
80397;BME280;69721;55.894;-3.052;2023-05-07T06:38:57;101052.08;;;10.40;62.56
80397;BME280;69721;55.894;-3.052;2023-05-07T06:41:23;101049.72;;;11.12;60.98
80397;BME280;69721;55.894;-3.052;2023-05-07T06:43:48;101055.73;;;9.68;65.41
80397;BME280;69721;55.894;-3.052;2023-05-07T06:46:13;101056.50;;;10.74;62.41
80397;BME280;69721;55.894;-3.052;2023-05-07T06:48:39;101056.92;;;10.27;62.40
80397;BME280;69721;55.894;-3.052;2023-05-07T06:51:04;101061.22;;;9.80;63.99
80397;BME280;69721;55.894;-3.052;2023-05-07T06:53:29;101064.37;;;9.17;65.73
80397;BME280;69721;55.894;-3.052;2023-05-07T06:55:54;101070.08;;;9.57;64.17
80397;BME280;69721;55.894;-3.052;2023-05-07T06:58:20;101077.17;;;9.58;63.58
80397;BME280;69721;55.894;-3.052;2023-05-07T07:00:45;101079.45;;;9.10;65.10
80397;BME280;69721;55.894;-3.052;2023-05-07T07:03:10;101079.95;;;9.87;63.46
80397;BME280;69721;55.894;-3.052;2023-05-07T07:05:35;101079.38;;;10.07;62.90
80397;BME280;69721;55.894;-3.052;2023-05-07T07:08:00;101079.95;;;10.07;63.67
80397;BME280;69721;55.894;-3.052;2023-05-07T07:10:26;101075.96;;;10.43;62.30
80397;BME280;69721;55.894;-3.052;2023-05-07T07:12:51;101071.24;;;10.89;61.23
80397;BME280;69721;55.894;-3.052;2023-05-07T07:15:17;101072.35;;;11.15;60.54
80397;BME280;69721;55.894;-3.052;2023-05-07T07:17:42;101077.37;;;10.69;62.08
80397;BME280;69721;55.894;-3.052;2023-05-07T07:20:08;101079.71;;;10.43;61.69
80397;BME280;69721;55.894;-3.052;2023-05-07T07:22:32;101075.17;;;11.00;60.90
80397;BME280;69721;55.894;-3.052;2023-05-07T07:24:58;101074.61;;;10.95;61.04
80397;BME280;69721;55.894;-3.052;2023-05-07T07:27:23;101078.60;;;10.36;62.87
80397;BME280;69721;55.894;-3.052;2023-05-07T07:29:49;101075.98;;;10.69;61.33
80397;BME280;69721;55.894;-3.052;2023-05-07T07:32:14;101081.51;;;9.90;63.59
80397;BME280;69721;55.894;-3.052;2023-05-07T07:34:47;101080.15;;;10.64;62.13
80397;BME280;69721;55.894;-3.052;2023-05-07T07:37:11;101078.35;;;11.19;61.32
80397;BME280;69721;55.894;-3.052;2023-05-07T07:39:32;101079.87;;;11.20;60.53
80397;BME280;69721;55.894;-3.052;2023-05-07T07:41:56;101082.12;;;10.58;61.31
80397;BME280;69721;55.894;-3.052;2023-05-07T07:44:21;101081.31;;;11.04;61.67
80397;BME280;69721;55.894;-3.052;2023-05-07T07:46:46;101078.95;;;11.78;59.45
80397;BME280;69721;55.894;-3.052;2023-05-07T07:49:12;101081.52;;;10.71;60.97
80397;BME280;69721;55.894;-3.052;2023-05-07T07:51:38;101082.89;;;11.02;61.89
80397;BME280;69721;55.894;-3.052;2023-05-07T07:54:04;101083.66;;;11.38;60.19
80397;BME280;69721;55.894;-3.052;2023-05-07T07:56:28;101084.36;;;11.51;60.31
80397;BME280;69721;55.894;-3.052;2023-05-07T07:58:54;101086.65;;;12.03;59.08
80397;BME280;69721;55.894;-3.052;2023-05-07T08:01:19;101090.13;;;11.58;60.01
80397;BME280;69721;55.894;-3.052;2023-05-07T08:03:45;101096.13;;;11.41;60.30
80397;BME280;69721;55.894;-3.052;2023-05-07T08:06:10;101098.07;;;11.91;59.40
80397;BME280;69721;55.894;-3.052;2023-05-07T08:08:36;101101.61;;;11.92;59.35
80397;BME280;69721;55.894;-3.052;2023-05-07T08:11:01;101107.43;;;11.34;59.91
80397;BME280;69721;55.894;-3.052;2023-05-07T08:13:27;101113.41;;;10.91;61.06
80397;BME280;69721;55.894;-3.052;2023-05-07T08:15:52;101112.01;;;11.17;61.06
80397;BME280;69721;55.894;-3.052;2023-05-07T08:18:18;101107.88;;;11.89;59.74
80397;BME280;69721;55.894;-3.052;2023-05-07T08:20:44;101109.29;;;11.91;59.00
80397;BME280;69721;55.894;-3.052;2023-05-07T08:23:09;101112.03;;;11.80;58.65
80397;BME280;69721;55.894;-3.052;2023-05-07T08:25:37;101115.30;;;12.17;58.81
80397;BME280;69721;55.894;-3.052;2023-05-07T08:28:03;101119.05;;;12.18;58.28
80397;BME280;69721;55.894;-3.052;2023-05-07T08:30:28;101123.14;;;12.04;59.06
80397;BME280;69721;55.894;-3.052;2023-05-07T08:32:54;101125.28;;;11.60;58.70
80397;BME280;69721;55.894;-3.052;2023-05-07T08:35:19;101122.30;;;11.92;58.36
80397;BME280;69721;55.894;-3.052;2023-05-07T08:37:50;101118.06;;;12.00;57.93
80397;BME280;69721;55.894;-3.052;2023-05-07T08:40:11;101114.44;;;12.44;57.29
80397;BME280;69721;55.894;-3.052;2023-05-07T08:42:36;101119.40;;;12.11;57.68
80397;BME280;69721;55.894;-3.052;2023-05-07T08:45:03;101120.59;;;12.43;57.15
80397;BME280;69721;55.894;-3.052;2023-05-07T08:47:31;101125.19;;;12.72;56.89
80397;BME280;69721;55.894;-3.052;2023-05-07T08:49:54;101126.81;;;11.84;58.10
80397;BME280;69721;55.894;-3.052;2023-05-07T08:52:19;101124.46;;;12.06;57.95
80397;BME280;69721;55.894;-3.052;2023-05-07T08:54:44;101125.92;;;11.67;58.54
80397;BME280;69721;55.894;-3.052;2023-05-07T08:57:10;101130.97;;;11.92;58.88
80397;BME280;69721;55.894;-3.052;2023-05-07T08:59:35;101136.51;;;12.08;57.18
80397;BME280;69721;55.894;-3.052;2023-05-07T09:02:01;101141.35;;;12.43;57.96
80397;BME280;69721;55.894;-3.052;2023-05-07T09:04:26;101146.81;;;11.73;57.74
80397;BME280;69721;55.894;-3.052;2023-05-07T09:06:52;101141.49;;;11.91;58.33
80397;BME280;69721;55.894;-3.052;2023-05-07T09:09:17;101137.90;;;12.03;58.42
80397;BME280;69721;55.894;-3.052;2023-05-07T09:11:42;101138.14;;;11.96;58.03
80397;BME280;69721;55.894;-3.052;2023-05-07T09:14:08;101142.09;;;12.18;57.97
80397;BME280;69721;55.894;-3.052;2023-05-07T09:16:33;101146.55;;;12.98;56.74
80397;BME280;69721;55.894;-3.052;2023-05-07T09:18:59;101146.80;;;12.77;55.75
80397;BME280;69721;55.894;-3.052;2023-05-07T09:21:24;101143.66;;;12.29;56.70
80397;BME280;69721;55.894;-3.052;2023-05-07T09:23:51;101141.39;;;13.21;55.72
80397;BME280;69721;55.894;-3.052;2023-05-07T09:26:15;101135.67;;;13.25;55.89
80397;BME280;69721;55.894;-3.052;2023-05-07T09:28:42;101135.02;;;13.49;55.70
80397;BME280;69721;55.894;-3.052;2023-05-07T09:31:06;101135.41;;;13.61;53.98
80397;BME280;69721;55.894;-3.052;2023-05-07T09:33:31;101134.82;;;13.36;54.63
80397;BME280;69721;55.894;-3.052;2023-05-07T09:35:57;101134.77;;;12.37;56.98
80397;BME280;69721;55.894;-3.052;2023-05-07T09:38:22;101126.03;;;13.11;55.71
80397;BME280;69721;55.894;-3.052;2023-05-07T09:40:47;101129.26;;;11.83;57.56
80397;BME280;69721;55.894;-3.052;2023-05-07T09:43:14;101130.62;;;12.50;56.25
80397;BME280;69721;55.894;-3.052;2023-05-07T09:45:39;101130.18;;;13.99;55.14
80397;BME280;69721;55.894;-3.052;2023-05-07T09:48:06;101132.27;;;13.41;55.72
80397;BME280;69721;55.894;-3.052;2023-05-07T09:50:36;101139.08;;;12.97;55.75
80397;BME280;69721;55.894;-3.052;2023-05-07T09:52:58;101137.16;;;13.66;54.78
80397;BME280;69721;55.894;-3.052;2023-05-07T09:55:22;101137.79;;;13.82;53.55
80397;BME280;69721;55.894;-3.052;2023-05-07T09:57:50;101138.19;;;12.81;55.66
80397;BME280;69721;55.894;-3.052;2023-05-07T10:00:14;101137.62;;;13.75;53.55
80397;BME280;69721;55.894;-3.052;2023-05-07T10:02:39;101139.11;;;13.66;54.38
80397;BME280;69721;55.894;-3.052;2023-05-07T10:05:04;101139.51;;;12.83;55.78
80397;BME280;69721;55.894;-3.052;2023-05-07T10:07:30;101139.15;;;12.12;58.24
80397;BME280;69721;55.894;-3.052;2023-05-07T10:09:56;101142.51;;;13.91;53.75
80397;BME280;69721;55.894;-3.052;2023-05-07T10:12:22;101142.54;;;14.42;53.77
80397;BME280;69721;55.894;-3.052;2023-05-07T10:14:46;101138.80;;;13.07;55.39
80397;BME280;69721;55.894;-3.052;2023-05-07T10:17:12;101136.39;;;14.51;53.37
80397;BME280;69721;55.894;-3.052;2023-05-07T10:19:38;101143.17;;;14.28;54.16
80397;BME280;69721;55.894;-3.052;2023-05-07T10:22:06;101147.15;;;14.48;53.99
80397;BME280;69721;55.894;-3.052;2023-05-07T10:24:32;101142.70;;;13.83;53.82
80397;BME280;69721;55.894;-3.052;2023-05-07T10:27:01;101143.26;;;14.59;52.88
80397;BME280;69721;55.894;-3.052;2023-05-07T10:29:25;101144.31;;;14.49;54.68
80397;BME280;69721;55.894;-3.052;2023-05-07T10:31:54;101144.52;;;13.81;54.40
80397;BME280;69721;55.894;-3.052;2023-05-07T10:34:12;101147.28;;;13.24;56.10
80397;BME280;69721;55.894;-3.052;2023-05-07T10:36:35;101146.91;;;13.61;55.58
80397;BME280;69721;55.894;-3.052;2023-05-07T10:39:01;101150.90;;;12.64;58.60
80397;BME280;69721;55.894;-3.052;2023-05-07T10:41:26;101153.52;;;12.57;57.40
80397;BME280;69721;55.894;-3.052;2023-05-07T10:43:51;101156.08;;;12.01;59.89
80397;BME280;69721;55.894;-3.052;2023-05-07T10:46:18;101162.15;;;13.47;56.40
80397;BME280;69721;55.894;-3.052;2023-05-07T10:51:21;101162.75;;;14.02;55.53
80397;BME280;69721;55.894;-3.052;2023-05-07T10:53:34;101161.43;;;15.25;54.40
80397;BME280;69721;55.894;-3.052;2023-05-07T10:58:26;101153.21;;;14.25;54.43
80397;BME280;69721;55.894;-3.052;2023-05-07T11:00:55;101151.23;;;15.06;51.42
80397;BME280;69721;55.894;-3.052;2023-05-07T11:03:16;101144.76;;;15.54;53.29
80397;BME280;69721;55.894;-3.052;2023-05-07T11:05:42;101142.02;;;16.61;51.91
80397;BME280;69721;55.894;-3.052;2023-05-07T11:08:10;101147.58;;;14.82;52.32
80397;BME280;69721;55.894;-3.052;2023-05-07T11:12:59;101149.05;;;14.91;52.33
80397;BME280;69721;55.894;-3.052;2023-05-07T11:15:35;101140.27;;;15.90;49.92
80397;BME280;69721;55.894;-3.052;2023-05-07T11:17:54;101139.68;;;15.23;51.63
80397;BME280;69721;55.894;-3.052;2023-05-07T11:20:16;101137.74;;;15.24;52.61
80397;BME280;69721;55.894;-3.052;2023-05-07T11:22:41;101135.69;;;16.38;50.86
80397;BME280;69721;55.894;-3.052;2023-05-07T11:25:07;101142.35;;;14.12;54.45
80397;BME280;69721;55.894;-3.052;2023-05-07T11:27:33;101147.93;;;13.98;54.74
80397;BME280;69721;55.894;-3.052;2023-05-07T11:29:57;101139.47;;;15.56;52.30
80397;BME280;69721;55.894;-3.052;2023-05-07T11:32:24;101136.38;;;15.47;51.48
80397;BME280;69721;55.894;-3.052;2023-05-07T11:34:51;101137.95;;;14.50;53.68
80397;BME280;69721;55.894;-3.052;2023-05-07T11:37:17;101129.94;;;14.77;55.41
80397;BME280;69721;55.894;-3.052;2023-05-07T11:39:39;101135.64;;;13.74;55.72
80397;BME280;69721;55.894;-3.052;2023-05-07T11:42:04;101138.86;;;14.80;53.87
80397;BME280;69721;55.894;-3.052;2023-05-07T11:44:40;101144.98;;;14.66;53.30
80397;BME280;69721;55.894;-3.052;2023-05-07T11:46:54;101145.32;;;14.05;55.87
80397;BME280;69721;55.894;-3.052;2023-05-07T11:49:20;101144.68;;;12.12;62.32
80397;BME280;69721;55.894;-3.052;2023-05-07T11:51:45;101139.71;;;11.95;62.14
80397;BME280;69721;55.894;-3.052;2023-05-07T11:54:11;101137.36;;;12.80;59.50
80397;BME280;69721;55.894;-3.052;2023-05-07T11:56:37;101138.99;;;12.23;60.96
80397;BME280;69721;55.894;-3.052;2023-05-07T11:59:02;101131.54;;;13.46;59.46
80397;BME280;69721;55.894;-3.052;2023-05-07T12:01:28;101134.77;;;13.45;57.71
80397;BME280;69721;55.894;-3.052;2023-05-07T12:03:53;101131.58;;;14.15;58.06
80397;BME280;69721;55.894;-3.052;2023-05-07T12:06:19;101127.11;;;14.68;56.89
80397;BME280;69721;55.894;-3.052;2023-05-07T12:08:45;101126.23;;;14.65;55.00
80397;BME280;69721;55.894;-3.052;2023-05-07T12:11:11;101132.61;;;13.64;56.45
80397;BME280;69721;55.894;-3.052;2023-05-07T12:13:35;101133.40;;;13.35;58.58
80397;BME280;69721;55.894;-3.052;2023-05-07T12:16:00;101131.66;;;14.51;55.74
80397;BME280;69721;55.894;-3.052;2023-05-07T12:18:25;101136.27;;;13.35;57.61
80397;BME280;69721;55.894;-3.052;2023-05-07T12:20:50;101136.96;;;13.20;58.99
80397;BME280;69721;55.894;-3.052;2023-05-07T12:23:17;101134.34;;;15.30;54.40
80397;BME280;69721;55.894;-3.052;2023-05-07T12:25:42;101135.99;;;15.68;52.85
80397;BME280;69721;55.894;-3.052;2023-05-07T12:28:08;101135.56;;;16.33;51.73
80397;BME280;69721;55.894;-3.052;2023-05-07T12:30:37;101135.25;;;15.48;51.88
80397;BME280;69721;55.894;-3.052;2023-05-07T12:32:58;101134.55;;;13.73;55.78
80397;BME280;69721;55.894;-3.052;2023-05-07T12:35:27;101130.95;;;15.53;52.71
80397;BME280;69721;55.894;-3.052;2023-05-07T12:37:54;101129.09;;;14.66;53.74